Private Wetterstation Wechselburg
Wetterdaten: Dienstag, 20.12.2016
Datum Zeit Temp. +2m Bodentemp. Temp.+5cm Temp. Wind Windchill X Diff Temp. Feuchte +2m Feuchte +5cm Sonnenschein Luftdruck Regen Wind Richtung Richtung Sonnenschein Taupunkt Windchill Windben
20.12.2016 00:00 -2,5 C 3,4 C -1,7 C -2,1 C -2,1 C 0,4 C 87 % 77 % 0 % 1030,2 hPa 0,0 l/m 1,3 km/h (1 Bft) O-NO 67 0 min -4,4 C -2,1 C 2,7 km/h (1 Bft)
20.12.2016 00:05 -2,1 C 3,4 C -1,5 C -1,9 C -1,9 C 0,2 C 87 % 77 % 0 % 1030,2 hPa 0,0 l/m 2,4 km/h (1 Bft) O-NO 67 0 min -4,0 C -1,9 C 2,4 km/h (1 Bft)
20.12.2016 00:10 -2,1 C 3,4 C -1,4 C -1,8 C -1,8 C 0,3 C 87 % 77 % 0 % 1030,2 hPa 0,0 l/m 1,9 km/h (1 Bft) O-NO 67 0 min -4,0 C -1,8 C 0,0 km/h (0 Bft)
20.12.2016 00:15 -2,1 C 3,4 C -1,7 C -2,0 C -2,0 C 0,1 C 87 % 77 % 0 % 1030,2 hPa 0,0 l/m 0,6 km/h (0 Bft) O-NO 67 0 min -4,0 C -2,0 C 1,6 km/h (1 Bft)
20.12.2016 00:20 -2,3 C 3,4 C -1,7 C -2,1 C -2,1 C 0,2 C 87 % 77 % 0 % 1030,2 hPa 0,0 l/m 0,2 km/h (0 Bft) NO 45 0 min -4,2 C -2,1 C 0,0 km/h (0 Bft)
20.12.2016 00:25 -2,4 C 3,2 C -1,7 C -2,4 C -2,4 C 0,0 C 87 % 77 % 0 % 1030,2 hPa 0,0 l/m 0,2 km/h (0 Bft) N-NO 22 0 min -4,3 C -2,4 C 0,0 km/h (0 Bft)
20.12.2016 00:30 -2,5 C 3,2 C -1,9 C -2,5 C -2,5 C 0,0 C 87 % 77 % 0 % 1030,2 hPa 0,0 l/m 0,0 km/h (0 Bft) O 90 0 min -4,4 C -2,5 C 0,0 km/h (0 Bft)
20.12.2016 00:35 -2,5 C 3,2 C -1,9 C -2,5 C -2,6 C 0,0 C 87 % 77 % 0 % 1030,2 hPa 0,0 l/m 0,3 km/h (0 Bft) O-NO 67 0 min -4,4 C -2,6 C 0,0 km/h (0 Bft)
20.12.2016 00:40 -2,6 C 3,2 C -1,9 C -2,6 C -2,6 C 0,0 C 87 % 77 % 0 % 1029,8 hPa 0,0 l/m 0,3 km/h (0 Bft) O-NO 67 0 min -4,5 C -2,6 C 0,0 km/h (0 Bft)
20.12.2016 00:45 -2,7 C 3,2 C -2,3 C -2,7 C -2,7 C 0,0 C 87 % 77 % 0 % 1029,8 hPa 0,0 l/m 0,0 km/h (0 Bft) NO 45 0 min -4,6 C -2,7 C 0,0 km/h (0 Bft)
20.12.2016 00:50 -2,7 C 3,2 C -2,5 C -2,8 C -2,9 C 0,0 C 87 % 78 % 0 % 1029,8 hPa 0,0 l/m 0,0 km/h (0 Bft) N-NO 22 0 min -4,6 C -2,9 C 1,6 km/h (1 Bft)
20.12.2016 00:55 -2,7 C 3,2 C -2,4 C -2,8 C -2,9 C 0,0 C 87 % 78 % 0 % 1029,8 hPa 0,0 l/m 0,0 km/h (0 Bft) NW 315 0 min -4,6 C -2,9 C 0,0 km/h (0 Bft)
20.12.2016 01:00 -2,8 C 3,2 C -2,3 C -2,9 C -3,1 C 0,0 C 87 % 78 % 0 % 1029,7 hPa 0,0 l/m 0,0 km/h (0 Bft) N-NW 337 0 min -4,7 C -3,1 C 0,0 km/h (0 Bft)
20.12.2016 01:05 -2,9 C 3,2 C -2,5 C -3,0 C -3,1 C 0,0 C 87 % 78 % 0 % 1029,7 hPa 0,0 l/m 0,3 km/h (0 Bft) O-NO 67 0 min -4,8 C -3,1 C 4,7 km/h (1 Bft)
20.12.2016 01:10 -2,7 C 3,2 C -2,5 C -2,7 C -2,7 C 0,0 C 87 % 78 % 0 % 1029,7 hPa 0,0 l/m 1,6 km/h (1 Bft) O-NO 67 0 min -4,6 C -2,7 C 3,2 km/h (1 Bft)
20.12.2016 01:15 -2,5 C 3,2 C -2,2 C -2,3 C -2,3 C 0,2 C 87 % 77 % 0 % 1029,7 hPa 0,0 l/m 2,1 km/h (1 Bft) O-NO 67 0 min -4,4 C -2,3 C 4,8 km/h (1 Bft)
20.12.2016 01:20 -2,7 C 3,2 C -2,1 C -2,3 C -2,3 C 0,4 C 87 % 77 % 0 % 1029,9 hPa 0,0 l/m 1,3 km/h (1 Bft) O-NO 67 0 min -4,6 C -2,3 C 0,0 km/h (0 Bft)
20.12.2016 01:25 -2,7 C 3,2 C -2,1 C -2,4 C -2,4 C 0,3 C 87 % 77 % 0 % 1029,9 hPa 0,0 l/m 0,8 km/h (0 Bft) NO 45 0 min -4,6 C -2,4 C 3,2 km/h (1 Bft)
20.12.2016 01:30 -2,3 C 3,1 C -2,1 C -2,1 C -2,1 C 0,2 C 87 % 77 % 0 % 1029,9 hPa 0,0 l/m 1,6 km/h (1 Bft) O 90 0 min -4,2 C -2,1 C 3,5 km/h (1 Bft)
20.12.2016 01:35 -2,3 C 3,2 C -1,7 C -1,8 C -1,8 C 0,5 C 87 % 77 % 0 % 1029,9 hPa 0,0 l/m 1,9 km/h (1 Bft) W-NW 292 0 min -4,2 C -1,8 C 0,0 km/h (0 Bft)
20.12.2016 01:40 -2,4 C 3,1 C -1,9 C -2,1 C -2,1 C 0,3 C 87 % 77 % 0 % 1029,9 hPa 0,0 l/m 1,4 km/h (1 Bft) W-SW 247 0 min -4,3 C -2,1 C 1,9 km/h (1 Bft)
20.12.2016 01:45 -2,7 C 3,1 C -2,2 C -2,4 C -2,4 C 0,3 C 87 % 77 % 0 % 1029,9 hPa 0,0 l/m 0,6 km/h (0 Bft) NW 315 0 min -4,6 C -2,4 C 0,0 km/h (0 Bft)
20.12.2016 01:50 -2,8 C 3,1 C -2,3 C -2,7 C -2,7 C 0,1 C 87 % 78 % 0 % 1029,9 hPa 0,0 l/m 0,0 km/h (0 Bft) S-SW 202 0 min -4,7 C -2,7 C 0,0 km/h (0 Bft)
20.12.2016 01:55 -2,9 C 3,1 C -2,5 C -2,9 C -3,0 C 0,0 C 87 % 78 % 0 % 1029,9 hPa 0,0 l/m 0,0 km/h (0 Bft) S-SW 202 0 min -4,8 C -3,0 C 0,0 km/h (0 Bft)
20.12.2016 02:00 -2,9 C 3,1 C -2,3 C -2,9 C -3,0 C 0,0 C 87 % 78 % 0 % 1029,3 hPa 0,0 l/m 0,0 km/h (0 Bft) N-NW 337 0 min -4,8 C -3,0 C 0,0 km/h (0 Bft)
20.12.2016 02:05 -2,9 C 3,1 C -2,5 C -2,8 C -2,8 C 0,1 C 87 % 78 % 0 % 1029,3 hPa 0,0 l/m 0,0 km/h (0 Bft) N-NO 22 0 min -4,8 C -2,8 C 0,0 km/h (0 Bft)
20.12.2016 02:10 -2,9 C 3,1 C -2,6 C -2,9 C -2,9 C 0,0 C 87 % 78 % 0 % 1029,3 hPa 0,0 l/m 0,0 km/h (0 Bft) N-NO 22 0 min -4,8 C -2,9 C 0,0 km/h (0 Bft)
20.12.2016 02:15 -3,1 C 3,1 C -2,7 C -3,0 C -3,0 C 0,1 C 87 % 79 % 0 % 1029,3 hPa 0,0 l/m 0,0 km/h (0 Bft) N 360 0 min -4,9 C -3,0 C 0,0 km/h (0 Bft)
20.12.2016 02:20 -3,2 C 3,1 C -2,9 C -3,0 C -3,0 C 0,2 C 87 % 79 % 0 % 1029,3 hPa 0,0 l/m 0,0 km/h (0 Bft) N-NW 337 0 min -5,0 C -3,0 C 0,0 km/h (0 Bft)
20.12.2016 02:25 -3,1 C 3,1 C -2,9 C -3,1 C -3,1 C 0,0 C 87 % 79 % 0 % 1029,3 hPa 0,0 l/m 0,0 km/h (0 Bft) N-NW 337 0 min -4,9 C -3,1 C 0,0 km/h (0 Bft)
20.12.2016 02:30 -3,3 C 3,1 C -2,9 C -3,1 C -3,1 C 0,2 C 87 % 79 % 0 % 1029,3 hPa 0,0 l/m 0,0 km/h (0 Bft) N-NW 337 0 min -5,1 C -3,1 C 0,0 km/h (0 Bft)
20.12.2016 02:35 -3,4 C 3,1 C -2,8 C -3,3 C -3,3 C 0,1 C 87 % 79 % 0 % 1029,3 hPa 0,0 l/m 0,0 km/h (0 Bft) W-SW 247 0 min -5,2 C -3,3 C 0,0 km/h (0 Bft)
20.12.2016 02:40 -3,3 C 3,1 C -2,9 C -3,3 C -3,3 C 0,0 C 87 % 79 % 0 % 1029,1 hPa 0,0 l/m 0,0 km/h (0 Bft) N 360 0 min -5,1 C -3,3 C 0,0 km/h (0 Bft)
20.12.2016 02:45 -3,3 C 3,2 C -3,1 C -3,1 C -3,1 C 0,2 C 87 % 79 % 0 % 1029,1 hPa 0,0 l/m 0,0 km/h (0 Bft) N 360 0 min -5,1 C -3,1 C 0,0 km/h (0 Bft)
20.12.2016 02:50 -3,3 C 3,2 C -3,1 C -3,0 C -3,0 C 0,3 C 87 % 79 % 0 % 1029,1 hPa 0,0 l/m 0,0 km/h (0 Bft) N-NW 337 0 min -5,1 C -3,0 C 0,0 km/h (0 Bft)
20.12.2016 02:55 -3,1 C 3,0 C -2,9 C -2,8 C -2,8 C 0,3 C 87 % 79 % 0 % 1029,1 hPa 0,0 l/m 0,0 km/h (0 Bft) N-NO 22 0 min -4,9 C -2,8 C 0,0 km/h (0 Bft)
20.12.2016 03:00 -3,3 C 3,0 C -3,1 C -2,8 C -2,8 C 0,5 C 87 % 79 % 0 % 1029,4 hPa 0,0 l/m 0,0 km/h (0 Bft) N-NO 22 0 min -5,1 C -2,8 C 0,0 km/h (0 Bft)
20.12.2016 03:05 -3,3 C 3,0 C -2,9 C -3,0 C -3,0 C 0,3 C 87 % 79 % 0 % 1029,4 hPa 0,0 l/m 0,0 km/h (0 Bft) N 360 0 min -5,1 C -3,0 C 0,0 km/h (0 Bft)
20.12.2016 03:10 -3,3 C 3,0 C -2,9 C -3,1 C -3,1 C 0,2 C 87 % 79 % 0 % 1029,4 hPa 0,0 l/m 0,0 km/h (0 Bft) N 360 0 min -5,1 C -3,1 C 0,0 km/h (0 Bft)
20.12.2016 03:15 -3,3 C 3,0 C -2,9 C -3,1 C -3,1 C 0,2 C 87 % 79 % 0 % 1029,4 hPa 0,0 l/m 0,0 km/h (0 Bft) O-NO 67 0 min -5,1 C -3,1 C 0,0 km/h (0 Bft)
20.12.2016 03:20 -3,2 C 3,0 C -2,5 C -2,9 C -2,9 C 0,3 C 87 % 79 % 0 % 1029,5 hPa 0,0 l/m 0,8 km/h (0 Bft) NO 45 0 min -5,0 C -2,9 C 3,5 km/h (1 Bft)
20.12.2016 03:25 -2,8 C 3,0 C -2,1 C -2,4 C -2,4 C 0,4 C 88 % 78 % 0 % 1029,5 hPa 0,0 l/m 2,1 km/h (1 Bft) O 90 0 min -4,5 C -2,4 C 6,0 km/h (2 Bft)
20.12.2016 03:30 -2,7 C 3,0 C -2,3 C -2,4 C -2,4 C 0,3 C 88 % 78 % 0 % 1029,5 hPa 0,0 l/m 1,6 km/h (1 Bft) W-SW 247 0 min -4,4 C -2,4 C 0,0 km/h (0 Bft)
20.12.2016 03:35 -3,3 C 3,0 C -2,7 C -3,1 C -3,1 C 0,2 C 87 % 79 % 0 % 1029,5 hPa 0,0 l/m 0,2 km/h (0 Bft) W 270 0 min -5,1 C -3,1 C 0,0 km/h (0 Bft)
20.12.2016 03:40 -3,5 C 3,0 C -2,9 C -3,5 C -3,5 C 0,0 C 87 % 79 % 0 % 1029,5 hPa 0,0 l/m 0,0 km/h (0 Bft) W 270 0 min -5,3 C -3,5 C 0,0 km/h (0 Bft)
20.12.2016 03:45 -3,6 C 3,0 C -2,9 C -3,6 C -3,7 C 0,0 C 87 % 79 % 0 % 1029,5 hPa 0,0 l/m 0,5 km/h (0 Bft) W 270 0 min -5,4 C -3,7 C 1,8 km/h (1 Bft)
20.12.2016 03:50 -3,7 C 3,0 C -2,9 C -3,7 C -3,8 C 0,0 C 87 % 80 % 0 % 1029,5 hPa 0,0 l/m 0,6 km/h (0 Bft) W-NW 292 0 min -5,5 C -3,8 C 0,0 km/h (0 Bft)
20.12.2016 03:55 -3,7 C 2,9 C -3,2 C -3,8 C -4,0 C 0,0 C 87 % 80 % 0 % 1029,5 hPa 0,0 l/m 0,2 km/h (0 Bft) O-NO 67 0 min -5,5 C -4,0 C 0,0 km/h (0 Bft)
20.12.2016 04:00 -3,9 C 2,9 C -3,3 C -3,9 C -4,0 C 0,0 C 87 % 80 % 0 % 1029,5 hPa 0,0 l/m 0,0 km/h (0 Bft) O-NO 67 0 min -5,7 C -4,0 C 0,0 km/h (0 Bft)
20.12.2016 04:05 -4,0 C 2,9 C -3,6 C -4,0 C -4,1 C 0,0 C 87 % 81 % 0 % 1029,5 hPa 0,0 l/m 0,0 km/h (0 Bft) O-NO 67 0 min -5,8 C -4,1 C 0,0 km/h (0 Bft)
20.12.2016 04:10 -4,1 C 2,9 C -3,6 C -4,0 C -4,0 C 0,1 C 87 % 81 % 0 % 1029,5 hPa 0,0 l/m 0,0 km/h (0 Bft) O-NO 67 0 min -5,9 C -4,0 C 0,0 km/h (0 Bft)
20.12.2016 04:15 -4,1 C 2,9 C -3,6 C -4,0 C -4,0 C 0,1 C 87 % 81 % 0 % 1029,5 hPa 0,0 l/m 0,0 km/h (0 Bft) O-NO 67 0 min -5,9 C -4,0 C 0,0 km/h (0 Bft)
20.12.2016 04:20 -4,1 C 2,9 C -3,6 C -4,0 C -4,0 C 0,1 C 87 % 81 % 0 % 1029,0 hPa 0,0 l/m 0,0 km/h (0 Bft) O-NO 67 0 min -5,9 C -4,0 C 0,0 km/h (0 Bft)
20.12.2016 04:25 -4,3 C 2,9 C -3,7 C -4,0 C -4,0 C 0,3 C 87 % 82 % 0 % 1029,0 hPa 0,0 l/m 0,0 km/h (0 Bft) N-NW 337 0 min -6,1 C -4,0 C 0,0 km/h (0 Bft)
20.12.2016 04:30 -4,3 C 2,9 C -3,7 C -3,9 C -3,9 C 0,4 C 87 % 81 % 0 % 1029,0 hPa 0,0 l/m 0,0 km/h (0 Bft) W-SW 247 0 min -6,1 C -3,9 C 0,0 km/h (0 Bft)
20.12.2016 04:35 -4,4 C 2,9 C -3,7 C -4,2 C -4,2 C 0,2 C 87 % 82 % 0 % 1029,0 hPa 0,0 l/m 0,0 km/h (0 Bft) W-SW 247 0 min -6,2 C -4,2 C 0,0 km/h (0 Bft)
20.12.2016 04:40 -4,5 C 2,9 C -3,9 C -4,4 C -4,4 C 0,1 C 87 % 82 % 0 % 1029,0 hPa 0,0 l/m 0,0 km/h (0 Bft) W-SW 247 0 min -6,3 C -4,4 C 0,0 km/h (0 Bft)
20.12.2016 04:45 -4,6 C 2,8 C -4,0 C -4,5 C -4,5 C 0,1 C 87 % 83 % 0 % 1029,0 hPa 0,0 l/m 0,0 km/h (0 Bft) W-SW 247 0 min -6,4 C -4,5 C 0,0 km/h (0 Bft)
20.12.2016 04:50 -4,5 C 2,8 C -4,1 C -4,4 C -4,4 C 0,1 C 87 % 83 % 0 % 1029,0 hPa 0,0 l/m 0,0 km/h (0 Bft) O-NO 67 0 min -6,3 C -4,4 C 0,0 km/h (0 Bft)
20.12.2016 04:55 -4,5 C 2,8 C -4,0 C -4,1 C -4,1 C 0,4 C 87 % 83 % 0 % 1029,0 hPa 0,0 l/m 0,0 km/h (0 Bft) W-SW 247 0 min -6,3 C -4,1 C 0,0 km/h (0 Bft)
20.12.2016 05:00 -4,5 C 2,8 C -3,9 C -4,3 C -4,3 C 0,2 C 87 % 82 % 0 % 1029,0 hPa 0,0 l/m 0,0 km/h (0 Bft) W-SW 247 0 min -6,3 C -4,3 C 0,0 km/h (0 Bft)
20.12.2016 05:05 -4,5 C 2,8 C -3,7 C -4,5 C -4,5 C 0,0 C 87 % 83 % 0 % 1029,0 hPa 0,0 l/m 0,0 km/h (0 Bft) W-SW 247 0 min -6,3 C -4,5 C 0,0 km/h (0 Bft)
20.12.2016 05:10 -4,5 C 2,8 C -3,9 C -4,5 C -4,5 C 0,0 C 87 % 82 % 0 % 1029,0 hPa 0,0 l/m 0,0 km/h (0 Bft) W-SW 247 0 min -6,3 C -4,5 C 0,0 km/h (0 Bft)
20.12.2016 05:15 -4,5 C 2,8 C -3,9 C -4,4 C -4,4 C 0,1 C 87 % 82 % 0 % 1029,0 hPa 0,0 l/m 0,0 km/h (0 Bft) W-SW 247 0 min -6,3 C -4,4 C 0,0 km/h (0 Bft)
20.12.2016 05:20 -4,7 C 2,8 C -4,1 C -4,5 C -4,5 C 0,2 C 87 % 83 % 0 % 1029,0 hPa 0,0 l/m 0,0 km/h (0 Bft) W-SW 247 0 min -6,5 C -4,5 C 0,0 km/h (0 Bft)
20.12.2016 05:25 -4,8 C 2,8 C -4,1 C -4,4 C -4,4 C 0,4 C 87 % 83 % 0 % 1029,0 hPa 0,0 l/m 0,0 km/h (0 Bft) W-SW 247 0 min -6,6 C -4,4 C 0,0 km/h (0 Bft)
20.12.2016 05:30 -4,9 C 2,8 C -4,3 C -4,4 C -4,4 C 0,5 C 87 % 84 % 0 % 1029,0 hPa 0,0 l/m 0,0 km/h (0 Bft) W-SW 247 0 min -6,7 C -4,4 C 0,0 km/h (0 Bft)
20.12.2016 05:35 -4,9 C 2,8 C -4,3 C -4,4 C -4,4 C 0,5 C 87 % 84 % 0 % 1029,0 hPa 0,0 l/m 0,0 km/h (0 Bft) O-NO 67 0 min -6,7 C -4,4 C 0,0 km/h (0 Bft)
20.12.2016 05:40 -5,0 C 2,8 C -4,4 C -4,3 C -4,3 C 0,7 C 87 % 84 % 0 % 1028,9 hPa 0,0 l/m 0,0 km/h (0 Bft) O-NO 67 0 min -6,8 C -4,3 C 0,0 km/h (0 Bft)
20.12.2016 05:45 -4,9 C 2,8 C -4,1 C -4,5 C -4,5 C 0,4 C 87 % 84 % 0 % 1028,9 hPa 0,0 l/m 0,0 km/h (0 Bft) W-SW 247 0 min -6,7 C -4,5 C 0,0 km/h (0 Bft)
20.12.2016 05:50 -4,9 C 2,7 C -4,1 C -4,6 C -4,6 C 0,3 C 87 % 83 % 0 % 1028,9 hPa 0,0 l/m 0,0 km/h (0 Bft) W-SW 247 0 min -6,7 C -4,6 C 0,0 km/h (0 Bft)
20.12.2016 05:55 -5,1 C 2,7 C -4,3 C -4,8 C -4,8 C 0,3 C 87 % 84 % 0 % 1028,9 hPa 0,0 l/m 0,0 km/h (0 Bft) W-SW 247 0 min -6,9 C -4,8 C 0,0 km/h (0 Bft)
20.12.2016 06:00 -5,2 C 2,7 C -4,3 C -4,8 C -4,8 C 0,4 C 87 % 84 % 0 % 1028,9 hPa 0,0 l/m 0,0 km/h (0 Bft) W-SW 247 0 min -7,0 C -4,8 C 0,0 km/h (0 Bft)
20.12.2016 06:05 -5,2 C 2,7 C -4,3 C -4,8 C -4,8 C 0,4 C 87 % 84 % 0 % 1028,9 hPa 0,0 l/m 0,0 km/h (0 Bft) W-SW 247 0 min -7,0 C -4,8 C 1,6 km/h (1 Bft)
20.12.2016 06:10 -5,2 C 2,7 C -4,1 C -4,8 C -4,8 C 0,4 C 87 % 84 % 0 % 1028,9 hPa 0,0 l/m 0,2 km/h (0 Bft) W 270 0 min -7,0 C -4,8 C 0,0 km/h (0 Bft)
20.12.2016 06:15 -5,2 C 2,7 C -4,3 C -5,0 C -5,0 C 0,2 C 87 % 84 % 0 % 1028,9 hPa 0,0 l/m 0,2 km/h (0 Bft) W 270 0 min -7,0 C -5,0 C 0,0 km/h (0 Bft)
20.12.2016 06:20 -5,3 C 2,7 C -4,4 C -5,1 C -5,1 C 0,2 C 87 % 84 % 0 % 1027,9 hPa 0,0 l/m 0,0 km/h (0 Bft) W 270 0 min -7,1 C -5,1 C 0,0 km/h (0 Bft)
20.12.2016 06:25 -5,3 C 2,7 C -4,5 C -5,2 C -5,2 C 0,1 C 87 % 85 % 0 % 1027,9 hPa 0,0 l/m 0,0 km/h (0 Bft) W 270 0 min -7,1 C -5,2 C 0,0 km/h (0 Bft)
20.12.2016 06:30 -5,3 C 2,7 C -4,4 C -5,0 C -5,0 C 0,3 C 87 % 84 % 0 % 1027,9 hPa 0,0 l/m 0,0 km/h (0 Bft) W 270 0 min -7,1 C -5,0 C 0,0 km/h (0 Bft)
20.12.2016 06:35 -5,3 C 2,7 C -4,4 C -4,9 C -4,9 C 0,4 C 87 % 85 % 0 % 1027,9 hPa 0,0 l/m 0,0 km/h (0 Bft) W 270 0 min -7,1 C -4,9 C 0,0 km/h (0 Bft)
20.12.2016 06:40 -5,3 C 2,7 C -4,5 C -4,8 C -4,8 C 0,5 C 87 % 85 % 0 % 1027,9 hPa 0,0 l/m 0,0 km/h (0 Bft) W 270 0 min -7,1 C -4,8 C 0,0 km/h (0 Bft)
20.12.2016 06:45 -5,3 C 2,7 C -4,5 C -4,6 C -4,6 C 0,7 C 87 % 85 % 0 % 1027,9 hPa 0,0 l/m 0,0 km/h (0 Bft) W 270 0 min -7,1 C -4,6 C 0,0 km/h (0 Bft)
20.12.2016 06:50 -5,3 C 2,6 C -4,5 C -4,6 C -4,6 C 0,7 C 87 % 85 % 0 % 1027,9 hPa 0,0 l/m 0,0 km/h (0 Bft) N 360 0 min -7,1 C -4,6 C 0,0 km/h (0 Bft)
20.12.2016 06:55 -5,3 C 2,7 C -4,5 C -4,4 C -4,4 C 0,9 C 87 % 85 % 0 % 1027,9 hPa 0,0 l/m 0,0 km/h (0 Bft) NW 315 0 min -7,1 C -4,4 C 0,0 km/h (0 Bft)
20.12.2016 07:00 -5,3 C 2,6 C -4,6 C -4,4 C -4,4 C 0,9 C 87 % 85 % 0 % 1027,9 hPa 0,0 l/m 0,0 km/h (0 Bft) NW 315 0 min -7,1 C -4,4 C 0,0 km/h (0 Bft)
20.12.2016 07:05 -5,4 C 2,6 C -4,5 C -4,4 C -4,4 C 1,0 C 87 % 85 % 0 % 1027,9 hPa 0,0 l/m 0,0 km/h (0 Bft) NW 315 0 min -7,2 C -4,4 C 0,0 km/h (0 Bft)
20.12.2016 07:10 -5,3 C 2,6 C -4,5 C -4,4 C -4,4 C 0,9 C 87 % 85 % 0 % 1027,9 hPa 0,0 l/m 0,0 km/h (0 Bft) NW 315 0 min -7,1 C -4,4 C 0,0 km/h (0 Bft)
20.12.2016 07:15 -5,2 C 2,6 C -4,5 C -4,1 C -4,1 C 1,1 C 87 % 85 % 0 % 1027,9 hPa 0,0 l/m 0,6 km/h (0 Bft) O-NO 67 0 min -7,0 C -4,1 C 1,8 km/h (1 Bft)
20.12.2016 07:20 -4,9 C 2,6 C -4,5 C -3,9 C -3,9 C 1,0 C 88 % 85 % 0 % 1027,9 hPa 0,0 l/m 1,0 km/h (0 Bft) O-NO 67 0 min -6,6 C -3,9 C 1,8 km/h (1 Bft)
20.12.2016 07:25 -4,7 C 2,6 C -3,9 C -3,7 C -3,7 C 1,0 C 88 % 84 % 0 % 1027,9 hPa 0,0 l/m 1,6 km/h (1 Bft) O 90 0 min -6,4 C -3,7 C 2,4 km/h (1 Bft)
20.12.2016 07:30 -4,3 C 2,6 C -3,7 C -3,5 C -3,5 C 0,8 C 88 % 84 % 0 % 1027,9 hPa 0,0 l/m 2,3 km/h (1 Bft) O-NO 67 0 min -6,0 C -3,5 C 4,7 km/h (1 Bft)
20.12.2016 07:35 -4,1 C 2,6 C -4,0 C -3,5 C -3,5 C 0,6 C 88 % 84 % 0 % 1027,9 hPa 0,0 l/m 2,6 km/h (1 Bft) O 90 0 min -5,8 C -3,5 C 2,9 km/h (1 Bft)
20.12.2016 07:40 -3,7 C 2,6 C -3,7 C -3,6 C -3,6 C 0,1 C 89 % 83 % 0 % 1027,6 hPa 0,0 l/m 2,7 km/h (1 Bft) O-NO 67 0 min -5,2 C -3,6 C 3,4 km/h (1 Bft)
20.12.2016 07:45 -3,5 C 2,6 C -3,3 C -3,3 C -3,3 C 0,2 C 89 % 82 % 0 % 1027,6 hPa 0,0 l/m 2,7 km/h (1 Bft) NO 45 0 min -5,0 C -3,3 C 6,8 km/h (2 Bft)
20.12.2016 07:50 -3,7 C 2,6 C -3,3 C -2,9 C -2,9 C 0,8 C 88 % 83 % 0 % 1027,6 hPa 0,0 l/m 1,6 km/h (1 Bft) O 90 0 min -5,4 C -2,9 C 1,6 km/h (1 Bft)
20.12.2016 07:55 -4,0 C 2,6 C -3,7 C -3,3 C -3,3 C 0,7 C 88 % 83 % 0 % 1027,6 hPa 0,0 l/m 0,3 km/h (0 Bft) S-SO 157 0 min -5,7 C -3,3 C 0,0 km/h (0 Bft)
20.12.2016 08:00 -4,1 C 2,6 C -3,7 C -3,4 C -3,4 C 0,7 C 88 % 84 % 0 % 1027,6 hPa 0,0 l/m 0,3 km/h (0 Bft) W 270 0 min -5,8 C -3,4 C 1,6 km/h (1 Bft)
20.12.2016 08:05 -4,1 C 2,6 C -3,5 C -3,7 C -3,7 C 0,4 C 88 % 83 % 0 % 1027,6 hPa 0,0 l/m 0,3 km/h (0 Bft) W-SW 247 0 min -5,8 C -3,7 C 0,0 km/h (0 Bft)
20.12.2016 08:10 -4,3 C 2,6 C -3,7 C -3,8 C -3,8 C 0,5 C 88 % 84 % 0 % 1027,6 hPa 0,0 l/m 0,2 km/h (0 Bft) N-NW 337 0 min -6,0 C -3,8 C 0,0 km/h (0 Bft)
20.12.2016 08:15 -4,3 C 2,6 C -3,8 C -3,9 C -3,9 C 0,4 C 88 % 84 % 0 % 1027,6 hPa 0,0 l/m 0,0 km/h (0 Bft) O-NO 67 0 min -6,0 C -3,9 C 0,0 km/h (0 Bft)
20.12.2016 08:20 -4,3 C 2,6 C -3,9 C -4,0 C -4,0 C 0,3 C 88 % 84 % 0 % 1027,6 hPa 0,0 l/m 0,0 km/h (0 Bft) O 90 0 min -6,0 C -4,0 C 0,0 km/h (0 Bft)
20.12.2016 08:25 -4,4 C 2,6 C -3,9 C -4,0 C -4,0 C 0,4 C 87 % 84 % 11 % 1027,6 hPa 0,0 l/m 0,0 km/h (0 Bft) O-NO 67 5 min -6,2 C -4,0 C 0,0 km/h (0 Bft)
20.12.2016 08:30 -4,5 C 2,6 C -3,9 C -3,9 C -3,9 C 0,6 C 87 % 84 % 16 % 1027,6 hPa 0,0 l/m 0,0 km/h (0 Bft) O-NO 67 5 min -6,3 C -3,9 C 0,0 km/h (0 Bft)
20.12.2016 08:35 -4,5 C 2,6 C -3,9 C -3,7 C -3,7 C 0,8 C 87 % 84 % 21 % 1027,6 hPa 0,0 l/m 0,0 km/h (0 Bft) O-NO 67 5 min -6,3 C -3,7 C 0,0 km/h (0 Bft)
20.12.2016 08:40 -4,5 C 2,6 C -3,7 C -3,6 C -3,6 C 0,9 C 87 % 84 % 24 % 1027,7 hPa 0,0 l/m 0,0 km/h (0 Bft) O-NO 67 5 min -6,3 C -3,6 C 0,0 km/h (0 Bft)
20.12.2016 08:45 -4,5 C 2,6 C -3,7 C -3,7 C -3,7 C 0,8 C 87 % 84 % 21 % 1027,7 hPa 0,0 l/m 0,0 km/h (0 Bft) N-NO 22 5 min -6,3 C -3,7 C 0,0 km/h (0 Bft)
20.12.2016 08:50 -4,5 C 2,6 C -3,7 C -3,7 C -3,7 C 0,8 C 87 % 84 % 21 % 1027,7 hPa 0,0 l/m 0,0 km/h (0 Bft) N-NO 22 5 min -6,3 C -3,7 C 1,8 km/h (1 Bft)
20.12.2016 08:55 -4,1 C 2,4 C -3,3 C -3,2 C -3,2 C 0,9 C 88 % 83 % 24 % 1027,7 hPa 0,0 l/m 0,8 km/h (0 Bft) O 90 5 min -5,8 C -3,2 C 0,0 km/h (0 Bft)
20.12.2016 09:00 -4,0 C 2,4 C -3,3 C -3,0 C -3,0 C 1,0 C 88 % 83 % 26 % 1027,8 hPa 0,0 l/m 1,0 km/h (0 Bft) O-NO 67 5 min -5,7 C -3,0 C 2,7 km/h (1 Bft)
20.12.2016 09:05 -3,7 C 2,4 C -3,1 C -2,7 C -2,7 C 1,0 C 88 % 83 % 26 % 1027,8 hPa 0,0 l/m 0,3 km/h (0 Bft) N 360 5 min -5,4 C -2,7 C 0,0 km/h (0 Bft)
20.12.2016 09:10 -3,7 C 2,4 C -3,2 C -2,6 C -2,6 C 1,1 C 88 % 82 % 29 % 1027,8 hPa 0,0 l/m 0,3 km/h (0 Bft) NW 315 5 min -5,4 C -2,6 C 0,0 km/h (0 Bft)
20.12.2016 09:15 -3,7 C 2,4 C -2,9 C -2,7 C -2,7 C 1,0 C 88 % 82 % 26 % 1027,8 hPa 0,0 l/m 0,5 km/h (0 Bft) O-NO 67 0 min -5,4 C -2,7 C 4,5 km/h (1 Bft)
20.12.2016 09:20 -3,3 C 2,4 C -2,9 C -2,4 C -2,4 C 0,9 C 88 % 82 % 24 % 1027,6 hPa 0,0 l/m 1,6 km/h (1 Bft) O 90 0 min -5,0 C -2,4 C 3,9 km/h (1 Bft)
20.12.2016 09:25 -2,9 C 2,4 C -2,1 C -2,1 C -2,1 C 0,8 C 89 % 80 % 21 % 1027,6 hPa 0,0 l/m 2,4 km/h (1 Bft) S 180 0 min -4,5 C -2,1 C 0,0 km/h (0 Bft)
20.12.2016 09:30 -2,9 C 2,4 C -2,1 C -1,9 C -1,9 C 1,0 C 89 % 80 % 26 % 1027,6 hPa 0,0 l/m 1,4 km/h (1 Bft) SW 225 0 min -4,5 C -1,9 C 1,6 km/h (1 Bft)
20.12.2016 09:35 -3,1 C 2,4 C -2,5 C -2,2 C -2,2 C 0,9 C 88 % 81 % 24 % 1027,6 hPa 0,0 l/m 0,0 km/h (0 Bft) SW 225 0 min -4,8 C -2,2 C 0,0 km/h (0 Bft)
20.12.2016 09:40 -3,2 C 2,4 C -2,4 C -2,2 C -2,2 C 1,0 C 88 % 80 % 26 % 1027,6 hPa 0,0 l/m 0,5 km/h (0 Bft) O-NO 67 0 min -4,9 C -2,2 C 2,3 km/h (1 Bft)
20.12.2016 09:45 -2,5 C 2,4 C -1,6 C -1,9 C -1,9 C 0,6 C 89 % 79 % 16 % 1027,6 hPa 0,0 l/m 2,4 km/h (1 Bft) O-NO 67 0 min -4,1 C -1,9 C 4,7 km/h (1 Bft)
20.12.2016 09:50 -2,1 C 2,4 C -1,4 C -2,3 C -2,6 C 0,0 C 89 % 78 % 0 % 1027,6 hPa 0,0 l/m 3,5 km/h (1 Bft) O-NO 67 0 min -3,7 C -2,6 C 4,0 km/h (1 Bft)
20.12.2016 09:55 -2,3 C 2,4 C -1,6 C -1,4 C -1,4 C 0,9 C 89 % 79 % 24 % 1027,6 hPa 0,0 l/m 2,1 km/h (1 Bft) S 180 0 min -3,9 C -1,4 C 0,0 km/h (0 Bft)
20.12.2016 10:00 -2,5 C 2,4 C -1,9 C -1,6 C -1,6 C 0,9 C 89 % 79 % 24 % 1027,6 hPa 0,0 l/m 1,4 km/h (1 Bft) O 90 0 min -4,1 C -1,6 C 3,1 km/h (1 Bft)
20.12.2016 10:05 -2,0 C 2,4 C -1,1 C -1,7 C -1,7 C 0,3 C 89 % 78 % 8 % 1027,6 hPa 0,0 l/m 2,9 km/h (1 Bft) O-NO 67 0 min -3,6 C -1,7 C 6,4 km/h (2 Bft)
20.12.2016 10:10 -1,7 C 2,4 C -1,1 C -1,9 C -2,2 C 0,0 C 89 % 78 % 0 % 1027,6 hPa 0,0 l/m 4,0 km/h (1 Bft) O-NO 67 0 min -3,3 C -2,2 C 3,4 km/h (1 Bft)
20.12.2016 10:15 -1,5 C 2,4 C -0,7 C -1,7 C -2,1 C 0,0 C 88 % 78 % 0 % 1027,6 hPa 0,0 l/m 4,0 km/h (1 Bft) O-NO 67 0 min -3,2 C -2,1 C 9,0 km/h (2 Bft)
20.12.2016 10:20 -1,6 C 2,4 C -0,8 C -1,7 C -1,9 C 0,0 C 88 % 77 % 0 % 1027,6 hPa 0,0 l/m 4,0 km/h (1 Bft) O-NO 67 0 min -3,3 C -1,9 C 10,3 km/h (2 Bft)
20.12.2016 10:25 -1,3 C 2,4 C -0,5 C -1,6 C -2,3 C 0,0 C 88 % 77 % 0 % 1027,6 hPa 0,0 l/m 5,1 km/h (1 Bft) O-NO 67 0 min -3,0 C -4,2 C 5,5 km/h (1 Bft)
20.12.2016 10:30 -1,3 C 2,4 C -0,5 C -1,8 C -2,7 C 0,0 C 87 % 77 % 0 % 1027,6 hPa 0,0 l/m 6,4 km/h (2 Bft) O-NO 67 0 min -3,2 C -5,3 C 7,9 km/h (2 Bft)
20.12.2016 10:35 -1,1 C 2,4 C -0,3 C -1,5 C -2,2 C 0,0 C 87 % 77 % 0 % 1027,6 hPa 0,0 l/m 5,3 km/h (1 Bft) O-NO 67 0 min -3,0 C -4,2 C 4,2 km/h (1 Bft)
20.12.2016 10:40 -0,9 C 2,4 C -0,3 C -1,2 C -1,9 C 0,0 C 87 % 77 % 0 % 1027,5 hPa 0,0 l/m 5,0 km/h (1 Bft) NO 45 0 min -2,8 C -3,7 C 6,1 km/h (2 Bft)
20.12.2016 10:45 -0,7 C 2,4 C -0,3 C -0,9 C -1,2 C 0,0 C 86 % 77 % 0 % 1027,5 hPa 0,0 l/m 4,5 km/h (1 Bft) O-NO 67 0 min -2,7 C -1,2 C 8,5 km/h (2 Bft)
20.12.2016 10:50 -0,7 C 2,4 C -0,1 C -0,9 C -1,3 C 0,0 C 86 % 77 % 0 % 1027,5 hPa 0,0 l/m 4,7 km/h (1 Bft) O 90 0 min -2,7 C -2,9 C 8,9 km/h (2 Bft)
20.12.2016 10:55 -0,4 C 2,4 C -0,1 C -1,0 C -2,2 C 0,0 C 86 % 77 % 0 % 1027,5 hPa 0,0 l/m 6,1 km/h (2 Bft) O-NO 67 0 min -2,4 C -4,6 C 12,2 km/h (2 Bft)
20.12.2016 11:00 -0,2 C 2,4 C -0,1 C -0,9 C -2,4 C 0,0 C 85 % 77 % 0 % 1027,2 hPa 0,0 l/m 6,9 km/h (2 Bft) O 90 0 min -2,4 C -5,2 C 9,8 km/h (2 Bft)
20.12.2016 11:05 0,1 C 2,4 C -0,1 C -0,4 C -2,5 C 0,0 C 85 % 77 % 0 % 1027,2 hPa 0,0 l/m 8,2 km/h (2 Bft) O-NO 67 0 min -2,1 C -5,7 C 12,1 km/h (2 Bft)
20.12.2016 11:10 0,3 C 2,4 C 0,0 C -0,3 C -2,3 C 0,0 C 85 % 77 % 0 % 1027,2 hPa 0,0 l/m 8,7 km/h (2 Bft) O-NO 67 0 min -1,9 C -5,7 C 9,5 km/h (2 Bft)
20.12.2016 11:15 0,5 C 2,4 C 0,2 C 0,0 C -1,8 C 0,0 C 85 % 77 % 0 % 1027,2 hPa 0,0 l/m 8,2 km/h (2 Bft) O-NO 67 0 min -1,7 C -4,9 C 14,6 km/h (3 Bft)
20.12.2016 11:20 0,5 C 2,4 C 0,1 C 0,1 C -1,6 C 0,0 C 84 % 77 % 0 % 1027,0 hPa 0,0 l/m 8,4 km/h (2 Bft) O 90 0 min -1,9 C -4,7 C 7,7 km/h (2 Bft)
20.12.2016 11:25 0,7 C 2,4 C 0,3 C 0,4 C -0,8 C 0,0 C 84 % 76 % 0 % 1027,0 hPa 0,0 l/m 7,9 km/h (2 Bft) O 90 0 min -1,7 C -3,6 C 7,9 km/h (2 Bft)
20.12.2016 11:30 0,7 C 2,4 C 0,3 C 0,5 C 0,0 C 0,0 C 84 % 76 % 0 % 1027,0 hPa 0,0 l/m 6,3 km/h (2 Bft) O-NO 67 0 min -1,7 C -2,1 C 6,1 km/h (2 Bft)
20.12.2016 11:35 0,8 C 2,4 C 0,4 C 0,7 C 0,6 C 0,0 C 84 % 76 % 0 % 1027,0 hPa 0,0 l/m 5,1 km/h (1 Bft) O-NO 67 0 min -1,6 C -1,0 C 4,7 km/h (1 Bft)
20.12.2016 11:40 0,8 C 2,4 C 0,5 C 0,6 C 0,3 C 0,0 C 84 % 76 % 0 % 1027,0 hPa 0,0 l/m 4,5 km/h (1 Bft) O-NO 67 0 min -1,6 C 0,3 C 6,1 km/h (2 Bft)
20.12.2016 11:45 0,9 C 2,4 C 0,5 C 1,2 C 1,2 C 0,3 C 83 % 76 % 8 % 1027,0 hPa 0,0 l/m 4,3 km/h (1 Bft) O-NO 67 0 min -1,7 C 1,2 C 4,8 km/h (1 Bft)
20.12.2016 11:50 1,1 C 2,4 C 0,5 C 1,1 C 1,0 C 0,0 C 83 % 76 % 0 % 1027,0 hPa 0,0 l/m 5,0 km/h (1 Bft) O-NO 67 0 min -1,5 C -0,5 C 4,5 km/h (1 Bft)
20.12.2016 11:55 1,1 C 2,4 C 0,5 C 0,8 C 0,2 C 0,0 C 83 % 76 % 0 % 1027,0 hPa 0,0 l/m 6,0 km/h (2 Bft) O-NO 67 0 min -1,5 C -1,8 C 11,1 km/h (2 Bft)
20.12.2016 12:00 1,1 C 2,4 C 0,7 C 0,6 C -0,3 C 0,0 C 83 % 77 % 0 % 1026,4 hPa 0,0 l/m 6,9 km/h (2 Bft) O 90 0 min -1,5 C -2,7 C 6,8 km/h (2 Bft)
20.12.2016 12:05 1,1 C 2,4 C 0,7 C 0,8 C -0,9 C 0,0 C 82 % 77 % 0 % 1026,4 hPa 0,0 l/m 8,2 km/h (2 Bft) O-NO 67 0 min -1,6 C -3,9 C 9,5 km/h (2 Bft)
20.12.2016 12:10 1,1 C 2,4 C 0,7 C 0,7 C -1,1 C 0,0 C 82 % 77 % 0 % 1026,4 hPa 0,0 l/m 8,5 km/h (2 Bft) O 90 0 min -1,6 C -4,2 C 9,3 km/h (2 Bft)
20.12.2016 12:15 1,2 C 2,4 C 0,7 C 0,7 C -1,4 C 0,0 C 82 % 78 % 0 % 1026,4 hPa 0,0 l/m 9,3 km/h (2 Bft) O-NO 67 0 min -1,5 C -4,8 C 10,0 km/h (2 Bft)
20.12.2016 12:20 1,2 C 2,4 C 0,7 C 0,6 C -1,3 C 0,0 C 82 % 79 % 0 % 1026,4 hPa 0,0 l/m 8,2 km/h (2 Bft) O-NO 67 0 min -1,5 C -4,3 C 4,0 km/h (1 Bft)
20.12.2016 12:25 1,2 C 2,4 C 0,8 C 0,5 C -0,9 C 0,0 C 82 % 79 % 0 % 1026,4 hPa 0,0 l/m 7,4 km/h (2 Bft) O-NO 67 0 min -1,5 C -3,6 C 13,2 km/h (3 Bft)
20.12.2016 12:30 1,2 C 2,3 C 0,9 C 0,5 C -0,9 C 0,0 C 81 % 80 % 0 % 1026,4 hPa 0,0 l/m 8,2 km/h (2 Bft) O-NO 67 0 min -1,7 C -3,9 C 13,7 km/h (3 Bft)
20.12.2016 12:35 1,3 C 2,3 C 0,8 C 0,7 C -2,2 C 0,0 C 81 % 81 % 0 % 1026,4 hPa 0,0 l/m 12,2 km/h (2 Bft) O-NO 67 0 min -1,6 C -6,5 C 19,0 km/h (3 Bft)
20.12.2016 12:40 1,3 C 2,3 C 0,9 C 0,5 C -2,4 C 0,0 C 81 % 83 % 0 % 1025,9 hPa 0,0 l/m 13,4 km/h (3 Bft) O-NO 67 0 min -1,6 C -7,0 C 15,6 km/h (3 Bft)
20.12.2016 12:45 1,4 C 2,3 C 0,8 C 0,6 C -1,9 C 0,0 C 81 % 84 % 0 % 1025,9 hPa 0,0 l/m 12,7 km/h (3 Bft) O-NO 67 0 min -1,5 C -6,3 C 15,9 km/h (3 Bft)
20.12.2016 12:50 1,5 C 2,3 C 0,9 C 0,8 C -1,7 C 0,0 C 81 % 84 % 0 % 1025,9 hPa 0,0 l/m 11,7 km/h (2 Bft) O-NO 67 0 min -1,4 C -5,8 C 11,3 km/h (2 Bft)
20.12.2016 12:55 1,5 C 2,3 C 1,1 C 0,9 C -1,0 C 0,0 C 81 % 85 % 0 % 1025,9 hPa 0,0 l/m 10,8 km/h (2 Bft) O-NO 67 0 min -1,4 C -4,7 C 10,5 km/h (2 Bft)
20.12.2016 13:00 1,5 C 2,5 C 1,0 C 1,1 C -0,5 C 0,0 C 81 % 85 % 0 % 1025,9 hPa 0,0 l/m 9,7 km/h (2 Bft) O-NO 67 0 min -1,4 C -3,8 C 9,7 km/h (2 Bft)
20.12.2016 13:05 1,6 C 2,5 C 1,0 C 1,2 C -0,3 C 0,0 C 81 % 86 % 0 % 1025,9 hPa 0,0 l/m 8,9 km/h (2 Bft) O-NO 67 0 min -1,3 C -3,4 C 8,7 km/h (2 Bft)
20.12.2016 13:10 1,6 C 2,5 C 1,1 C 1,2 C -0,7 C 0,0 C 81 % 87 % 0 % 1025,9 hPa 0,0 l/m 9,5 km/h (2 Bft) NO 45 0 min -1,3 C -4,0 C 14,2 km/h (3 Bft)
20.12.2016 13:15 1,5 C 2,5 C 1,1 C 0,8 C -0,7 C 0,0 C 80 % 88 % 0 % 1025,9 hPa 0,0 l/m 10,5 km/h (2 Bft) O-SO 112 0 min -1,6 C -4,3 C 14,3 km/h (3 Bft)
20.12.2016 13:20 1,5 C 2,5 C 1,1 C 1,1 C -0,9 C 0,0 C 80 % 89 % 0 % 1025,5 hPa 0,0 l/m 10,9 km/h (2 Bft) O-SO 112 0 min -1,6 C -4,6 C 10,9 km/h (2 Bft)
20.12.2016 13:25 1,5 C 2,5 C 1,0 C 1,0 C -1,2 C 0,0 C 80 % 89 % 0 % 1025,5 hPa 0,0 l/m 11,7 km/h (2 Bft) O 90 0 min -1,6 C -5,2 C 12,9 km/h (3 Bft)
20.12.2016 13:30 1,5 C 2,5 C 1,1 C 1,0 C -1,1 C 0,0 C 80 % 89 % 0 % 1025,5 hPa 0,0 l/m 12,2 km/h (2 Bft) O-NO 67 0 min -1,6 C -5,2 C 11,3 km/h (2 Bft)
20.12.2016 13:35 1,5 C 2,4 C 1,1 C 1,0 C -1,0 C 0,0 C 80 % 90 % 0 % 1025,5 hPa 0,0 l/m 11,4 km/h (2 Bft) O 90 0 min -1,6 C -4,9 C 12,7 km/h (3 Bft)
20.12.2016 13:40 1,5 C 2,4 C 1,1 C 1,1 C -0,5 C 0,0 C 80 % 90 % 0 % 1025,5 hPa 0,0 l/m 10,6 km/h (2 Bft) O 90 0 min -1,6 C -4,1 C 9,5 km/h (2 Bft)
20.12.2016 13:45 1,5 C 2,4 C 1,0 C 1,2 C -0,3 C 0,0 C 80 % 90 % 0 % 1025,5 hPa 0,0 l/m 10,1 km/h (2 Bft) O 90 0 min -1,6 C -3,7 C 10,6 km/h (2 Bft)
20.12.2016 13:50 1,5 C 2,4 C 1,1 C 0,9 C -0,3 C 0,0 C 80 % 90 % 0 % 1025,5 hPa 0,0 l/m 9,5 km/h (2 Bft) O-NO 67 0 min -1,6 C -3,5 C 10,8 km/h (2 Bft)
20.12.2016 13:55 1,6 C 2,4 C 1,1 C 1,4 C 0,3 C 0,0 C 80 % 90 % 0 % 1025,5 hPa 0,0 l/m 8,0 km/h (2 Bft) O-SO 112 0 min -1,5 C -2,4 C 7,1 km/h (2 Bft)
20.12.2016 14:00 1,7 C 2,4 C 1,1 C 1,3 C 0,6 C 0,0 C 80 % 90 % 0 % 1025,6 hPa 0,0 l/m 7,6 km/h (2 Bft) O-NO 67 0 min -1,4 C -1,9 C 10,3 km/h (2 Bft)
20.12.2016 14:05 1,6 C 2,4 C 1,1 C 1,3 C 0,6 C 0,0 C 80 % 90 % 0 % 1025,6 hPa 0,0 l/m 7,7 km/h (2 Bft) O-SO 112 0 min -1,5 C -1,9 C 6,6 km/h (2 Bft)
20.12.2016 14:10 1,6 C 2,4 C 1,1 C 1,4 C 1,1 C 0,0 C 81 % 90 % 0 % 1025,6 hPa 0,0 l/m 7,1 km/h (2 Bft) O-NO 67 0 min -1,3 C -1,2 C 8,4 km/h (2 Bft)
20.12.2016 14:15 1,6 C 2,4 C 1,1 C 1,7 C 1,7 C 0,1 C 81 % 90 % 3 % 1025,6 hPa 0,0 l/m 5,8 km/h (2 Bft) O 90 0 min -1,3 C 0,0 C 2,7 km/h (1 Bft)
20.12.2016 14:20 1,7 C 2,4 C 1,1 C 1,8 C 1,8 C 0,1 C 80 % 90 % 3 % 1025,6 hPa 0,0 l/m 5,8 km/h (2 Bft) NO 45 0 min -1,4 C 0,1 C 7,9 km/h (2 Bft)
20.12.2016 14:25 1,7 C 2,4 C 1,0 C 1,8 C 1,8 C 0,1 C 79 % 90 % 3 % 1025,6 hPa 0,0 l/m 5,8 km/h (2 Bft) O-NO 67 0 min -1,5 C 0,1 C 8,2 km/h (2 Bft)
20.12.2016 14:30 1,6 C 2,6 C 1,1 C 1,6 C 1,6 C 0,0 C 79 % 90 % 0 % 1025,6 hPa 0,0 l/m 6,1 km/h (2 Bft) O-NO 67 0 min -1,6 C -0,2 C 6,9 km/h (2 Bft)
20.12.2016 14:35 1,6 C 2,6 C 0,9 C 1,7 C 0,7 C 0,1 C 79 % 90 % 3 % 1025,6 hPa 0,0 l/m 7,9 km/h (2 Bft) O 90 0 min -1,6 C -1,9 C 13,4 km/h (3 Bft)
20.12.2016 14:40 1,6 C 2,6 C 0,9 C 1,5 C 0,2 C 0,0 C 79 % 90 % 0 % 1025,6 hPa 0,0 l/m 9,2 km/h (2 Bft) O 90 0 min -1,6 C -2,9 C 8,7 km/h (2 Bft)
20.12.2016 14:45 1,5 C 2,6 C 0,8 C 1,1 C 0,2 C 0,0 C 79 % 89 % 0 % 1025,6 hPa 0,0 l/m 9,2 km/h (2 Bft) O-NO 67 0 min -1,7 C -2,9 C 7,9 km/h (2 Bft)
20.12.2016 14:50 1,5 C 2,6 C 0,8 C 1,4 C 0,4 C 0,0 C 79 % 89 % 0 % 1025,6 hPa 0,0 l/m 8,5 km/h (2 Bft) O-SO 112 0 min -1,7 C -2,4 C 6,9 km/h (2 Bft)
20.12.2016 14:55 1,4 C 2,6 C 0,6 C 1,3 C 1,1 C 0,0 C 79 % 89 % 0 % 1025,6 hPa 0,0 l/m 6,1 km/h (2 Bft) O-NO 67 0 min -1,8 C -0,8 C 7,9 km/h (2 Bft)
20.12.2016 15:00 1,3 C 2,6 C 0,6 C 1,1 C 0,7 C 0,0 C 79 % 89 % 0 % 1025,6 hPa 0,0 l/m 5,0 km/h (1 Bft) O 90 0 min -1,9 C -0,8 C 5,8 km/h (2 Bft)
20.12.2016 15:05 1,3 C 2,6 C 0,6 C 0,6 C -0,7 C 0,0 C 79 % 89 % 0 % 1025,6 hPa 0,0 l/m 6,3 km/h (2 Bft) O-NO 67 0 min -1,9 C -3,0 C 7,4 km/h (2 Bft)
20.12.2016 15:10 1,2 C 2,6 C 0,5 C 0,4 C -1,3 C 0,0 C 79 % 89 % 0 % 1025,6 hPa 0,0 l/m 7,6 km/h (2 Bft) O-NO 67 0 min -2,0 C -4,1 C 13,8 km/h (3 Bft)
20.12.2016 15:15 1,2 C 2,6 C 0,4 C 0,5 C -2,2 C 0,0 C 79 % 89 % 0 % 1025,6 hPa 0,0 l/m 10,0 km/h (2 Bft) O 90 0 min -2,0 C -5,9 C 11,9 km/h (2 Bft)
20.12.2016 15:20 1,2 C 2,6 C 0,4 C 0,4 C -2,4 C 0,0 C 79 % 89 % 0 % 1025,6 hPa 0,0 l/m 10,3 km/h (2 Bft) O-NO 67 0 min -2,0 C -6,3 C 9,3 km/h (2 Bft)
20.12.2016 15:25 1,1 C 2,6 C 0,3 C 0,3 C -2,3 C 0,0 C 80 % 89 % 0 % 1025,6 hPa 0,0 l/m 9,3 km/h (2 Bft) O 90 0 min -2,0 C -5,9 C 8,5 km/h (2 Bft)
20.12.2016 15:30 1,1 C 2,6 C 0,2 C 0,3 C -2,1 C 0,0 C 80 % 89 % 0 % 1025,6 hPa 0,0 l/m 8,2 km/h (2 Bft) O-NO 67 0 min -2,0 C -5,3 C 10,8 km/h (2 Bft)
20.12.2016 15:35 1,1 C 2,6 C 0,3 C 0,0 C -2,1 C 0,0 C 80 % 89 % 0 % 1025,6 hPa 0,0 l/m 7,7 km/h (2 Bft) O-NO 67 0 min -2,0 C -5,1 C 6,9 km/h (2 Bft)
20.12.2016 15:40 0,9 C 2,6 C 0,0 C 0,0 C -1,9 C 0,0 C 80 % 90 % 0 % 1025,6 hPa 0,0 l/m 6,8 km/h (2 Bft) NO 45 0 min -2,2 C -4,5 C 5,1 km/h (1 Bft)
20.12.2016 15:45 0,8 C 2,6 C 0,1 C 0,2 C -1,0 C 0,0 C 80 % 90 % 0 % 1025,6 hPa 0,0 l/m 4,0 km/h (1 Bft) O-NO 67 0 min -2,2 C -1,0 C 3,2 km/h (1 Bft)
20.12.2016 15:50 0,8 C 2,6 C -0,1 C 0,3 C -0,8 C 0,0 C 80 % 90 % 0 % 1025,6 hPa 0,0 l/m 3,4 km/h (1 Bft) O-NO 67 0 min -2,2 C -0,8 C 1,9 km/h (1 Bft)
20.12.2016 15:55 0,7 C 2,6 C -0,3 C 0,2 C -0,8 C 0,0 C 80 % 90 % 0 % 1025,6 hPa 0,0 l/m 2,9 km/h (1 Bft) O 90 0 min -2,3 C -0,8 C 3,2 km/h (1 Bft)
20.12.2016 16:00 0,6 C 2,6 C -0,5 C 0,1 C -0,9 C 0,0 C 81 % 90 % 0 % 1025,6 hPa 0,0 l/m 3,1 km/h (1 Bft) NO 45 0 min -2,3 C -0,9 C 6,3 km/h (2 Bft)
20.12.2016 16:05 0,4 C 2,6 C -0,6 C -0,3 C -1,6 C 0,0 C 81 % 90 % 0 % 1025,6 hPa 0,0 l/m 3,7 km/h (1 Bft) NO 45 0 min -2,5 C -1,6 C 5,6 km/h (1 Bft)
20.12.2016 16:10 0,4 C 2,6 C -0,5 C -0,5 C -2,2 C 0,0 C 81 % 90 % 0 % 1025,6 hPa 0,0 l/m 4,8 km/h (1 Bft) NO 45 0 min -2,5 C -4,0 C 6,4 km/h (2 Bft)
20.12.2016 16:15 0,3 C 2,6 C -0,5 C -0,7 C -2,7 C 0,0 C 81 % 90 % 0 % 1025,6 hPa 0,0 l/m 5,6 km/h (1 Bft) NO 45 0 min -2,6 C -4,9 C 6,1 km/h (2 Bft)
20.12.2016 16:20 0,3 C 2,6 C -0,5 C -0,7 C -2,6 C 0,0 C 81 % 90 % 0 % 1025,8 hPa 0,0 l/m 5,1 km/h (1 Bft) O 90 0 min -2,6 C -4,6 C 5,6 km/h (1 Bft)
20.12.2016 16:25 0,1 C 2,6 C -0,7 C -0,8 C -2,7 C 0,0 C 82 % 90 % 0 % 1025,8 hPa 0,0 l/m 5,3 km/h (1 Bft) O 90 0 min -2,6 C -4,8 C 5,1 km/h (1 Bft)
20.12.2016 16:35 -0,1 C 2,6 C -0,9 C -0,8 C -2,3 C 0,0 C 82 % 90 % 0 % 1025,8 hPa 0,0 l/m 3,9 km/h (1 Bft) O 90 0 min -2,8 C -2,3 C 4,2 km/h (1 Bft)
20.12.2016 16:40 -0,1 C 2,6 C -0,9 C -0,8 C -2,3 C 0,0 C 82 % 90 % 0 % 1025,4 hPa 0,0 l/m 4,0 km/h (1 Bft) O-SO 112 0 min -2,8 C -2,3 C 3,7 km/h (1 Bft)
20.12.2016 16:45 -0,1 C 2,6 C -1,2 C -0,7 C -2,0 C 0,0 C 82 % 90 % 0 % 1025,4 hPa 0,0 l/m 3,2 km/h (1 Bft) O-NO 67 0 min -2,8 C -2,0 C 2,4 km/h (1 Bft)
20.12.2016 16:50 -0,1 C 2,6 C -1,3 C -0,5 C -1,4 C 0,0 C 82 % 90 % 0 % 1025,4 hPa 0,0 l/m 2,3 km/h (1 Bft) O-SO 112 0 min -2,8 C -1,4 C 3,9 km/h (1 Bft)
20.12.2016 16:55 -0,3 C 2,6 C -1,3 C -0,8 C -1,8 C 0,0 C 82 % 90 % 0 % 1025,4 hPa 0,0 l/m 2,6 km/h (1 Bft) N-NO 22 0 min -3,0 C -1,8 C 1,9 km/h (1 Bft)
20.12.2016 17:00 -0,3 C 2,6 C -1,5 C -1,0 C -2,3 C 0,0 C 82 % 90 % 0 % 1025,2 hPa 0,0 l/m 3,1 km/h (1 Bft) O-NO 67 0 min -3,0 C -2,3 C 5,8 km/h (2 Bft)
20.12.2016 17:05 -0,4 C 2,6 C -1,3 C -1,0 C -2,2 C 0,0 C 82 % 90 % 0 % 1025,2 hPa 0,0 l/m 2,9 km/h (1 Bft) O-NO 67 0 min -3,1 C -2,2 C 2,3 km/h (1 Bft)
20.12.2016 17:10 -0,5 C 2,6 C -1,6 C -1,1 C -2,4 C 0,0 C 81 % 90 % 0 % 1025,2 hPa 0,0 l/m 3,1 km/h (1 Bft) NO 45 0 min -3,3 C -2,4 C 3,9 km/h (1 Bft)
20.12.2016 17:15 -0,5 C 2,5 C -1,9 C -1,1 C -2,2 C 0,0 C 82 % 89 % 0 % 1025,2 hPa 0,0 l/m 2,6 km/h (1 Bft) O-NO 67 0 min -3,2 C -2,2 C 3,9 km/h (1 Bft)
20.12.2016 17:20 -0,7 C 2,5 C -1,9 C -1,2 C -2,3 C 0,0 C 82 % 89 % 0 % 1024,8 hPa 0,0 l/m 2,7 km/h (1 Bft) O-NO 67 0 min -3,4 C -2,3 C 2,1 km/h (1 Bft)
20.12.2016 17:25 -0,7 C 2,5 C -1,7 C -1,3 C -2,4 C 0,0 C 82 % 90 % 0 % 1024,8 hPa 0,0 l/m 2,9 km/h (1 Bft) O-NO 67 0 min -3,4 C -2,4 C 1,6 km/h (1 Bft)
20.12.2016 17:30 -0,7 C 2,5 C -1,9 C -1,2 C -2,3 C 0,0 C 82 % 89 % 0 % 1024,8 hPa 0,0 l/m 2,6 km/h (1 Bft) O-NO 67 0 min -3,4 C -2,3 C 2,4 km/h (1 Bft)
20.12.2016 17:35 -0,8 C 2,5 C -1,9 C -1,4 C -2,6 C 0,0 C 82 % 89 % 0 % 1024,8 hPa 0,0 l/m 2,9 km/h (1 Bft) W 270 0 min -3,5 C -2,6 C 0,0 km/h (0 Bft)
20.12.2016 17:40 -0,8 C 2,5 C -2,0 C -1,3 C -2,4 C 0,0 C 82 % 89 % 0 % 1025,2 hPa 0,0 l/m 2,6 km/h (1 Bft) O 90 0 min -3,5 C -2,4 C 4,2 km/h (1 Bft)
20.12.2016 17:45 -0,9 C 2,5 C -2,1 C -1,4 C -2,3 C 0,0 C 82 % 89 % 0 % 1025,2 hPa 0,0 l/m 1,4 km/h (1 Bft) O-NO 67 0 min -3,6 C -2,3 C 2,1 km/h (1 Bft)
20.12.2016 17:50 -0,9 C 2,5 C -2,1 C -1,4 C -2,3 C 0,0 C 82 % 89 % 0 % 1025,2 hPa 0,0 l/m 1,4 km/h (1 Bft) N-NW 337 0 min -3,6 C -2,3 C 2,3 km/h (1 Bft)
20.12.2016 17:55 -0,9 C 2,5 C -2,1 C -1,4 C -2,5 C 0,0 C 82 % 89 % 0 % 1025,2 hPa 0,0 l/m 1,6 km/h (1 Bft) N-NW 337 0 min -3,6 C -2,5 C 2,3 km/h (1 Bft)
20.12.2016 18:00 -1,1 C 2,5 C -2,1 C -1,6 C -2,6 C 0,0 C 82 % 89 % 0 % 1024,6 hPa 0,0 l/m 1,4 km/h (1 Bft) N-NO 22 0 min -3,8 C -2,6 C 1,8 km/h (1 Bft)
20.12.2016 18:05 -1,3 C 2,5 C -2,3 C -1,8 C -2,9 C 0,0 C 82 % 89 % 0 % 1024,6 hPa 0,0 l/m 1,0 km/h (0 Bft) N 360 0 min -4,0 C -2,9 C 2,3 km/h (1 Bft)
20.12.2016 18:10 -1,3 C 2,5 C -2,3 C -1,9 C -3,0 C 0,0 C 82 % 89 % 0 % 1024,6 hPa 0,0 l/m 0,8 km/h (0 Bft) NO 45 0 min -4,0 C -3,0 C 3,5 km/h (1 Bft)
20.12.2016 18:15 -1,3 C 2,5 C -2,5 C -1,9 C -3,1 C 0,0 C 82 % 89 % 0 % 1024,6 hPa 0,0 l/m 0,6 km/h (0 Bft) N-NW 337 0 min -4,0 C -3,1 C 2,3 km/h (1 Bft)
20.12.2016 18:20 -1,3 C 2,5 C -2,5 C -1,9 C -3,1 C 0,0 C 82 % 89 % 0 % 1024,8 hPa 0,0 l/m 1,3 km/h (1 Bft) W-SW 247 0 min -4,0 C -3,1 C 2,3 km/h (1 Bft)
20.12.2016 18:25 -1,3 C 2,5 C -2,3 C -2,1 C -3,7 C 0,0 C 83 % 89 % 0 % 1024,8 hPa 0,0 l/m 3,4 km/h (1 Bft) NO 45 0 min -3,8 C -3,7 C 3,5 km/h (1 Bft)
20.12.2016 18:30 -1,3 C 2,5 C -2,3 C -2,1 C -3,8 C 0,0 C 83 % 89 % 0 % 1024,8 hPa 0,0 l/m 4,2 km/h (1 Bft) O-NO 67 0 min -3,8 C -3,8 C 3,9 km/h (1 Bft)
20.12.2016 18:35 -1,3 C 2,5 C -2,3 C -2,0 C -3,4 C 0,0 C 82 % 89 % 0 % 1024,8 hPa 0,0 l/m 3,5 km/h (1 Bft) NO 45 0 min -4,0 C -3,4 C 1,6 km/h (1 Bft)
20.12.2016 18:40 -1,3 C 2,5 C -2,4 C -1,7 C -2,6 C 0,0 C 82 % 89 % 0 % 1024,8 hPa 0,0 l/m 2,3 km/h (1 Bft) O-SO 112 0 min -4,0 C -2,6 C 2,4 km/h (1 Bft)
20.12.2016 18:45 -1,5 C 2,5 C -2,5 C -2,0 C -3,0 C 0,0 C 82 % 89 % 0 % 1024,8 hPa 0,0 l/m 0,6 km/h (0 Bft) O-NO 67 0 min -4,2 C -3,0 C 2,6 km/h (1 Bft)
20.12.2016 18:50 -1,7 C 2,5 C -2,7 C -2,2 C -3,1 C 0,0 C 83 % 89 % 0 % 1024,8 hPa 0,0 l/m 0,5 km/h (0 Bft) N 360 0 min -4,2 C -3,1 C 1,8 km/h (1 Bft)
20.12.2016 18:55 -1,7 C 2,5 C -2,7 C -2,3 C -3,4 C 0,0 C 83 % 89 % 0 % 1024,8 hPa 0,0 l/m 0,5 km/h (0 Bft) N-NO 22 0 min -4,2 C -3,4 C 0,0 km/h (0 Bft)
20.12.2016 19:00 -1,9 C 2,5 C -2,9 C -2,4 C -3,5 C 0,0 C 83 % 89 % 0 % 1024,7 hPa 0,0 l/m 0,2 km/h (0 Bft) N-NO 22 0 min -4,4 C -3,5 C 0,0 km/h (0 Bft)
20.12.2016 19:05 -2,1 C 2,5 C -3,1 C -2,6 C -3,7 C 0,0 C 83 % 89 % 0 % 1024,7 hPa 0,0 l/m 0,3 km/h (0 Bft) O 90 0 min -4,6 C -3,7 C 2,1 km/h (1 Bft)
20.12.2016 19:10 -2,1 C 2,4 C -2,9 C -2,6 C -3,7 C 0,0 C 83 % 89 % 0 % 1024,7 hPa 0,0 l/m 1,0 km/h (0 Bft) O-NO 67 0 min -4,6 C -3,7 C 2,3 km/h (1 Bft)
20.12.2016 19:15 -2,1 C 2,4 C -2,9 C -2,6 C -3,5 C 0,0 C 83 % 89 % 0 % 1024,7 hPa 0,0 l/m 1,9 km/h (1 Bft) O-NO 67 0 min -4,6 C -3,5 C 2,7 km/h (1 Bft)
20.12.2016 19:20 -2,1 C 2,4 C -2,9 C -2,6 C -3,7 C 0,0 C 83 % 89 % 0 % 1024,8 hPa 0,0 l/m 2,4 km/h (1 Bft) O-NO 67 0 min -4,6 C -3,7 C 2,6 km/h (1 Bft)
20.12.2016 19:25 -2,3 C 2,4 C -2,9 C -2,7 C -3,6 C 0,0 C 83 % 89 % 0 % 1024,8 hPa 0,0 l/m 1,3 km/h (1 Bft) N-NO 22 0 min -4,8 C -3,6 C 0,0 km/h (0 Bft)
20.12.2016 19:30 -2,4 C 2,4 C -3,1 C -2,9 C -3,8 C 0,0 C 83 % 88 % 0 % 1024,8 hPa 0,0 l/m 0,3 km/h (0 Bft) N-NW 337 0 min -4,9 C -3,8 C 0,0 km/h (0 Bft)
20.12.2016 19:35 -2,5 C 2,4 C -3,3 C -3,0 C -4,1 C 0,0 C 83 % 88 % 0 % 1024,8 hPa 0,0 l/m 0,0 km/h (0 Bft) SW 225 0 min -5,0 C -4,1 C 0,0 km/h (0 Bft)
20.12.2016 19:40 -2,5 C 2,4 C -3,3 C -3,1 C -4,2 C 0,0 C 84 % 88 % 0 % 1024,8 hPa 0,0 l/m 0,2 km/h (0 Bft) NW 315 0 min -4,8 C -4,2 C 0,0 km/h (0 Bft)
20.12.2016 19:45 -2,7 C 2,4 C -3,3 C -3,2 C -4,1 C 0,0 C 84 % 88 % 0 % 1024,8 hPa 0,0 l/m 0,2 km/h (0 Bft) N 360 0 min -5,0 C -4,1 C 0,0 km/h (0 Bft)
20.12.2016 19:50 -2,7 C 2,4 C -3,3 C -3,2 C -4,1 C 0,0 C 84 % 88 % 0 % 1024,8 hPa 0,0 l/m 0,0 km/h (0 Bft) N 360 0 min -5,0 C -4,1 C 0,0 km/h (0 Bft)
20.12.2016 19:55 -2,9 C 2,4 C -3,5 C -3,4 C -4,3 C 0,0 C 84 % 88 % 0 % 1024,8 hPa 0,0 l/m 0,0 km/h (0 Bft) N 360 0 min -5,2 C -4,3 C 0,0 km/h (0 Bft)
20.12.2016 20:00 -2,9 C 2,4 C -3,7 C -3,4 C -4,3 C 0,0 C 84 % 88 % 0 % 1024,9 hPa 0,0 l/m 0,0 km/h (0 Bft) O-NO 67 0 min -5,2 C -4,3 C 0,0 km/h (0 Bft)
20.12.2016 20:05 -3,1 C 2,4 C -3,9 C -3,5 C -4,4 C 0,0 C 84 % 88 % 0 % 1024,9 hPa 0,0 l/m 0,0 km/h (0 Bft) O-NO 67 0 min -5,4 C -4,4 C 0,0 km/h (0 Bft)
20.12.2016 20:10 -3,2 C 2,4 C -4,1 C -3,6 C -4,5 C 0,0 C 84 % 88 % 0 % 1024,9 hPa 0,0 l/m 0,0 km/h (0 Bft) NO 45 0 min -5,5 C -4,5 C 0,0 km/h (0 Bft)
20.12.2016 20:15 -3,3 C 2,4 C -4,1 C -3,7 C -4,6 C 0,0 C 84 % 88 % 0 % 1024,9 hPa 0,0 l/m 0,0 km/h (0 Bft) O-NO 67 0 min -5,6 C -4,6 C 0,0 km/h (0 Bft)
20.12.2016 20:20 -3,3 C 2,4 C -4,4 C -3,8 C -4,7 C 0,0 C 84 % 88 % 0 % 1025,3 hPa 0,0 l/m 0,0 km/h (0 Bft) O-NO 67 0 min -5,6 C -4,7 C 0,0 km/h (0 Bft)
20.12.2016 20:25 -3,6 C 2,4 C -4,3 C -4,0 C -4,9 C 0,0 C 84 % 88 % 0 % 1025,3 hPa 0,0 l/m 0,0 km/h (0 Bft) O-NO 67 0 min -5,9 C -4,9 C 0,0 km/h (0 Bft)
20.12.2016 20:35 -3,7 C 2,4 C -4,5 C -4,2 C -5,2 C 0,0 C 84 % 88 % 0 % 1025,3 hPa 0,0 l/m 0,0 km/h (0 Bft) O-NO 67 0 min -6,0 C -5,2 C 0,0 km/h (0 Bft)
20.12.2016 20:40 -3,9 C 2,3 C -4,5 C -4,4 C -5,4 C 0,0 C 84 % 88 % 0 % 1025,6 hPa 0,0 l/m 0,0 km/h (0 Bft) O-NO 67 0 min -6,2 C -5,4 C 0,0 km/h (0 Bft)
20.12.2016 20:45 -3,9 C 2,3 C -4,3 C -4,4 C -5,3 C 0,0 C 84 % 88 % 0 % 1025,6 hPa 0,0 l/m 0,0 km/h (0 Bft) O-NO 67 0 min -6,2 C -5,3 C 0,0 km/h (0 Bft)
20.12.2016 20:50 -3,9 C 2,3 C -4,6 C -4,3 C -5,2 C 0,0 C 84 % 88 % 0 % 1025,6 hPa 0,0 l/m 0,0 km/h (0 Bft) O-NO 67 0 min -6,2 C -5,2 C 0,0 km/h (0 Bft)
20.12.2016 20:55 -4,1 C 2,3 C -4,3 C -4,4 C -5,0 C 0,0 C 85 % 88 % 0 % 1025,6 hPa 0,0 l/m 0,0 km/h (0 Bft) O-NO 67 0 min -6,2 C -5,0 C 0,0 km/h (0 Bft)
20.12.2016 21:00 -4,1 C 2,3 C -4,5 C -4,4 C -4,9 C 0,0 C 85 % 87 % 0 % 1025,6 hPa 0,0 l/m 0,0 km/h (0 Bft) NO 45 0 min -6,2 C -4,9 C 0,0 km/h (0 Bft)
20.12.2016 21:05 -4,1 C 2,3 C -4,4 C -4,4 C -5,0 C 0,0 C 85 % 87 % 0 % 1025,6 hPa 0,0 l/m 0,3 km/h (0 Bft) W-SW 247 0 min -6,2 C -5,0 C 0,0 km/h (0 Bft)
20.12.2016 21:10 -4,2 C 2,3 C -4,4 C -4,5 C -5,0 C 0,0 C 85 % 87 % 0 % 1025,6 hPa 0,0 l/m 0,3 km/h (0 Bft) N-NW 337 0 min -6,3 C -5,0 C 0,0 km/h (0 Bft)
20.12.2016 21:15 -4,3 C 2,3 C -4,5 C -4,6 C -5,2 C 0,0 C 85 % 87 % 0 % 1025,6 hPa 0,0 l/m 0,0 km/h (0 Bft) NW 315 0 min -6,4 C -5,2 C 0,0 km/h (0 Bft)
20.12.2016 21:20 -4,4 C 2,3 C -4,5 C -4,7 C -5,3 C 0,0 C 85 % 87 % 0 % 1025,5 hPa 0,0 l/m 0,0 km/h (0 Bft) O-NO 67 0 min -6,5 C -5,3 C 0,0 km/h (0 Bft)
20.12.2016 21:25 -4,5 C 2,3 C -4,7 C -4,8 C -5,5 C 0,0 C 85 % 88 % 0 % 1025,5 hPa 0,0 l/m 0,0 km/h (0 Bft) O-NO 67 0 min -6,6 C -5,5 C 0,0 km/h (0 Bft)
20.12.2016 21:30 -4,5 C 2,3 C -4,7 C -4,9 C -5,6 C 0,0 C 85 % 88 % 0 % 1025,5 hPa 0,0 l/m 0,0 km/h (0 Bft) NW 315 0 min -6,6 C -5,6 C 0,0 km/h (0 Bft)
20.12.2016 21:35 -4,7 C 2,3 C -4,9 C -5,1 C -5,8 C 0,0 C 85 % 88 % 0 % 1025,5 hPa 0,0 l/m 0,0 km/h (0 Bft) O-NO 67 0 min -6,8 C -5,8 C 0,0 km/h (0 Bft)
20.12.2016 21:40 -4,8 C 2,3 C -4,9 C -5,1 C -5,7 C 0,0 C 85 % 88 % 0 % 1025,3 hPa 0,0 l/m 0,0 km/h (0 Bft) O-NO 67 0 min -6,9 C -5,7 C 0,0 km/h (0 Bft)
20.12.2016 21:45 -4,7 C 2,3 C -4,9 C -5,0 C -5,6 C 0,0 C 85 % 88 % 0 % 1025,3 hPa 0,0 l/m 0,0 km/h (0 Bft) O-NO 67 0 min -6,8 C -5,6 C 0,0 km/h (0 Bft)
20.12.2016 21:50 -4,9 C 2,3 C -4,8 C -5,1 C -5,4 C 0,0 C 85 % 88 % 0 % 1025,3 hPa 0,0 l/m 0,0 km/h (0 Bft) O-NO 67 0 min -7,0 C -5,4 C 0,0 km/h (0 Bft)
20.12.2016 21:55 -4,9 C 2,3 C -4,8 C -5,0 C -5,3 C 0,0 C 85 % 88 % 0 % 1025,3 hPa 0,0 l/m 0,0 km/h (0 Bft) O-NO 67 0 min -7,0 C -5,3 C 0,0 km/h (0 Bft)
20.12.2016 22:00 -5,0 C 2,2 C -4,7 C -5,1 C -5,3 C 0,0 C 85 % 87 % 0 % 1025,3 hPa 0,0 l/m 0,0 km/h (0 Bft) O 90 0 min -7,1 C -5,3 C 0,0 km/h (0 Bft)
20.12.2016 22:05 -4,9 C 2,2 C -4,5 C -4,9 C -5,0 C 0,0 C 85 % 87 % 0 % 1025,3 hPa 0,0 l/m 0,8 km/h (0 Bft) O-NO 67 0 min -7,0 C -5,0 C 2,6 km/h (1 Bft)
20.12.2016 22:10 -4,9 C 2,2 C -4,6 C -4,8 C -4,8 C 0,1 C 86 % 87 % 0 % 1025,3 hPa 0,0 l/m 1,1 km/h (1 Bft) O-NO 67 0 min -6,9 C -4,8 C 2,1 km/h (1 Bft)
20.12.2016 22:20 -4,9 C 2,2 C -4,5 C -4,9 C -5,0 C 0,0 C 86 % 87 % 0 % 1025,3 hPa 0,0 l/m 0,3 km/h (0 Bft) S-SW 202 0 min -6,9 C -5,0 C 0,0 km/h (0 Bft)
20.12.2016 22:25 -5,1 C 2,2 C -4,5 C -5,2 C -5,3 C 0,0 C 86 % 87 % 0 % 1025,3 hPa 0,0 l/m 0,0 km/h (0 Bft) W-SW 247 0 min -7,1 C -5,3 C 0,0 km/h (0 Bft)
20.12.2016 22:30 -5,1 C 2,2 C -4,5 C -5,2 C -5,3 C 0,0 C 86 % 87 % 0 % 1025,3 hPa 0,0 l/m 0,0 km/h (0 Bft) O-SO 112 0 min -7,1 C -5,3 C 0,0 km/h (0 Bft)
20.12.2016 22:35 -5,2 C 2,2 C -4,9 C -5,2 C -5,3 C 0,0 C 86 % 88 % 0 % 1025,3 hPa 0,0 l/m 0,0 km/h (0 Bft) NW 315 0 min -7,2 C -5,3 C 0,0 km/h (0 Bft)
20.12.2016 22:40 -5,3 C 2,2 C -4,9 C -5,4 C -5,5 C 0,0 C 86 % 88 % 0 % 1026,1 hPa 0,0 l/m 0,0 km/h (0 Bft) N 360 0 min -7,3 C -5,5 C 0,0 km/h (0 Bft)
20.12.2016 22:45 -5,3 C 2,2 C -4,9 C -5,4 C -5,5 C 0,0 C 86 % 88 % 0 % 1026,1 hPa 0,0 l/m 0,0 km/h (0 Bft) N 360 0 min -7,3 C -5,5 C 0,0 km/h (0 Bft)
20.12.2016 22:50 -5,3 C 2,2 C -4,9 C -5,4 C -5,6 C 0,0 C 86 % 88 % 0 % 1026,1 hPa 0,0 l/m 0,0 km/h (0 Bft) O-SO 112 0 min -7,3 C -5,6 C 0,0 km/h (0 Bft)
20.12.2016 22:55 -5,4 C 2,2 C -4,9 C -5,5 C -5,6 C 0,0 C 86 % 88 % 0 % 1026,1 hPa 0,0 l/m 0,0 km/h (0 Bft) O-NO 67 0 min -7,4 C -5,6 C 0,0 km/h (0 Bft)
20.12.2016 23:00 -5,5 C 2,2 C -5,2 C -5,5 C -5,6 C 0,0 C 86 % 88 % 0 % 1026,0 hPa 0,0 l/m 0,0 km/h (0 Bft) O-NO 67 0 min -7,5 C -5,6 C 0,0 km/h (0 Bft)
20.12.2016 23:05 -5,6 C 2,2 C -5,2 C -5,7 C -5,8 C 0,0 C 86 % 88 % 0 % 1026,0 hPa 0,0 l/m 0,0 km/h (0 Bft) O-SO 112 0 min -7,6 C -5,8 C 0,0 km/h (0 Bft)
20.12.2016 23:10 -5,6 C 2,2 C -5,1 C -5,7 C -5,8 C 0,0 C 86 % 88 % 0 % 1026,0 hPa 0,0 l/m 0,0 km/h (0 Bft) NO 45 0 min -7,6 C -5,8 C 0,0 km/h (0 Bft)
20.12.2016 23:15 -5,6 C 2,2 C -5,2 C -5,6 C -5,6 C 0,0 C 86 % 88 % 0 % 1026,0 hPa 0,0 l/m 0,3 km/h (0 Bft) NO 45 0 min -7,6 C -5,6 C 1,6 km/h (1 Bft)
20.12.2016 23:20 -5,7 C 2,2 C -5,1 C -5,5 C -5,5 C 0,2 C 86 % 88 % 0 % 1026,0 hPa 0,0 l/m 0,3 km/h (0 Bft) O-NO 67 0 min -7,7 C -5,5 C 0,0 km/h (0 Bft)
20.12.2016 23:25 -5,7 C 2,1 C -5,1 C -5,5 C -5,5 C 0,2 C 86 % 88 % 0 % 1026,0 hPa 0,0 l/m 0,0 km/h (0 Bft) O 90 0 min -7,7 C -5,5 C 0,0 km/h (0 Bft)
20.12.2016 23:30 -5,7 C 2,1 C -5,2 C -5,6 C -5,6 C 0,1 C 86 % 88 % 0 % 1026,0 hPa 0,0 l/m 0,0 km/h (0 Bft) W-SW 247 0 min -7,7 C -5,6 C 1,8 km/h (1 Bft)
20.12.2016 23:35 -5,7 C 2,1 C -5,1 C -5,7 C -5,7 C 0,0 C 86 % 88 % 0 % 1026,0 hPa 0,0 l/m 0,2 km/h (0 Bft) NO 45 0 min -7,7 C -5,7 C 0,0 km/h (0 Bft)
20.12.2016 23:40 -5,7 C 2,1 C -5,1 C -5,7 C -5,8 C 0,0 C 86 % 88 % 0 % 1026,0 hPa 0,0 l/m 0,2 km/h (0 Bft) N-NO 22 0 min -7,7 C -5,8 C 0,0 km/h (0 Bft)
20.12.2016 23:45 -5,7 C 2,1 C -5,2 C -5,9 C -6,2 C 0,0 C 86 % 88 % 0 % 1026,0 hPa 0,0 l/m 0,0 km/h (0 Bft) N-NO 22 0 min -7,7 C -6,2 C 0,0 km/h (0 Bft)
20.12.2016 23:50 -5,9 C 2,1 C -5,2 C -6,1 C -6,4 C 0,0 C 86 % 88 % 0 % 1026,0 hPa 0,0 l/m 0,0 km/h (0 Bft) SW 225 0 min -7,9 C -6,4 C 0,0 km/h (0 Bft)
20.12.2016 23:55 -5,9 C 2,1 C -5,3 C -6,0 C -6,2 C 0,0 C 86 % 88 % 0 % 1026,0 hPa 0,0 l/m 0,0 km/h (0 Bft) O-NO 67 0 min -7,9 C -6,2 C 0,0 km/h (0 Bft)
_ Min-Zeit 23:50 23:25 23:55 23:50 23:50 00:25 14:25 11:25 00:00 18:00 - 00:30 - - - 23:50 12:40 00:10
Minimum _ -5,9 C 2,1 C -5,3 C -6,1 C -6,4 C 0,0 C 79 % 76 % 0 % 1024,6 hPa - 0,0 km/h (0 Bft) - - - -7,9 C -7,0 C 0,0 km/h (0 Bft)
_ Max-Zeit 14:00 00:00 12:55 14:20 14:20 09:10 07:40 13:35 09:10 00:00 00:00 12:40 - - 08:25 13:05 11:45 12:35
Maximum _ 1,7 C 3,4 C 1,1 C 1,8 C 1,8 C 1,1 C 89 % 90 % 29 % 1030,2 hPa 0,0 l/m 13,4 km/h
O-NO (3 Bft)
- - 5 min -1,3 C 1,2 C 19,0 km/h
O-NO (3 Bft)
Durchschnitt _ -2,3 C 2,6 C -2,3 C -2,4 C -3,0 C 0,2 C 85 % 84 % 2 % 1027,0 hPa #0,0 l/m 2,5 km/h (1 Bft) O-NO - #50 min. -4,6 C -3,6 C 3,0 km/h (1 Bft)
2016 www.wetterstation-wechselburg.de